Time,TemperatureF,DewpointF,PressureIn,WindDirection,WindDirectionDegrees,WindSpeedMPH,WindSpeedGustMPH,Humidity,HourlyPrecipIn,Conditions,Clouds,dailyrainin,SoftwareType,DateUTC
2013-02-06 00:01:00,59.6,56.0,29.91,ENE,69,0.0,1.0,88,0.00,,FEW036,0.00,VWS V14.01,2013-02-06 06:01:00,
2013-02-06 00:06:00,59.6,56.0,29.91,ENE,66,0.0,1.0,88,0.00,,FEW036,0.00,VWS V14.01,2013-02-06 06:06:00,
2013-02-06 00:11:00,59.5,56.0,29.91,ENE,66,0.0,0.0,88,0.00,,,0.00,VWS V14.01,2013-02-06 06:11:00,
2013-02-06 00:16:00,59.5,56.0,29.91,ENE,66,0.0,1.0,88,0.00,,,0.00,VWS V14.01,2013-02-06 06:16:00,
2013-02-06 00:21:00,59.3,55.8,29.91,ENE,69,0.0,4.0,88,0.00,,,0.00,VWS V14.01,2013-02-06 06:21:00,
2013-02-06 00:26:00,59.3,56.1,29.91,ENE,67,0.0,5.0,89,0.00,,,0.00,VWS V14.01,2013-02-06 06:26:00,
2013-02-06 00:31:00,59.5,56.3,29.90,East,86,0.0,6.0,89,0.00,,,0.00,VWS V14.01,2013-02-06 06:31:00,
2013-02-06 00:36:00,59.6,56.4,29.90,ENE,74,0.0,6.0,89,0.00,,,0.00,VWS V14.01,2013-02-06 06:36:00,
2013-02-06 00:41:00,59.5,56.3,29.90,ENE,72,0.0,1.0,89,0.00,,,0.00,VWS V14.01,2013-02-06 06:41:00,
2013-02-06 00:46:00,59.5,56.3,29.90,ENE,69,0.0,2.0,89,0.00,,,0.00,VWS V14.01,2013-02-06 06:46:00,
2013-02-06 00:51:00,59.3,56.1,29.90,ENE,69,0.0,0.0,89,0.00,,,0.00,VWS V14.01,2013-02-06 06:51:00,
2013-02-06 00:56:00,59.3,56.4,29.90,ENE,68,0.0,0.0,90,0.00,,,0.00,VWS V14.01,2013-02-06 06:56:00,
2013-02-06 01:01:00,59.2,56.3,29.90,ENE,68,0.0,0.0,90,0.00,,,0.00,VWS V14.01,2013-02-06 07:01:00,
2013-02-06 01:06:00,59.2,56.3,29.90,ENE,68,0.0,0.0,90,0.00,,,0.00,VWS V14.01,2013-02-06 07:06:00,
2013-02-06 01:11:00,59.0,56.1,29.90,ENE,68,0.0,5.0,90,0.00,,,0.00,VWS V14.01,2013-02-06 07:11:00,
2013-02-06 01:16:00,59.0,56.1,29.90,ENE,78,0.0,5.0,90,0.00,,,0.00,VWS V14.01,2013-02-06 07:16:00,
2013-02-06 01:21:00,59.0,56.1,29.90,ENE,78,0.0,0.0,90,0.00,,,0.00,VWS V14.01,2013-02-06 07:21:00,
2013-02-06 01:26:00,58.9,56.0,29.90,ENE,78,0.0,4.0,90,0.00,,,0.00,VWS V14.01,2013-02-06 07:26:00,
2013-02-06 01:31:00,58.9,56.0,29.91,ENE,76,2.0,4.0,90,0.00,,,0.00,VWS V14.01,2013-02-06 07:31:00,
2013-02-06 01:36:00,58.9,56.0,29.91,ENE,78,0.0,4.0,90,0.00,,,0.00,VWS V14.01,2013-02-06 07:36:00,
2013-02-06 01:41:00,59.0,56.1,29.91,East,90,2.0,7.0,90,0.00,,,0.00,VWS V14.01,2013-02-06 07:41:00,
2013-02-06 01:46:00,59.2,56.3,29.91,ESE,111,4.0,7.0,90,0.00,,,0.00,VWS V14.01,2013-02-06 07:46:00,
2013-02-06 01:51:00,59.3,56.4,29.91,East,92,4.0,5.0,90,0.00,,,0.00,VWS V14.01,2013-02-06 07:51:00,
2013-02-06 01:56:00,59.3,56.4,29.91,East,86,2.0,8.0,90,0.00,,,0.00,VWS V14.01,2013-02-06 07:56:00,
2013-02-06 02:01:00,59.3,56.4,29.90,East,98,1.0,1.0,90,0.00,,,0.00,VWS V14.01,2013-02-06 08:01:00,
2013-02-06 02:06:00,59.3,56.4,29.90,ESE,108,0.0,7.0,90,0.00,,,0.00,VWS V14.01,2013-02-06 08:06:00,
2013-02-06 02:11:00,59.3,56.4,29.90,East,81,2.0,6.0,90,0.00,,,0.00,VWS V14.01,2013-02-06 08:11:00,
2013-02-06 02:16:00,59.5,56.6,29.91,ESE,107,3.0,7.0,90,0.00,,,0.00,VWS V14.01,2013-02-06 08:16:00,
2013-02-06 02:21:00,59.5,56.6,29.91,East,96,0.0,7.0,90,0.00,,,0.00,VWS V14.01,2013-02-06 08:21:00,
2013-02-06 02:26:00,59.6,56.7,29.91,ESE,105,4.0,7.0,90,0.00,,,0.00,VWS V14.01,2013-02-06 08:26:00,
2013-02-06 02:31:00,59.8,56.9,29.91,ESE,106,6.0,7.0,90,0.00,,,0.00,VWS V14.01,2013-02-06 08:31:00,
2013-02-06 02:36:00,59.9,57.0,29.91,East,97,7.0,8.0,90,0.00,,,0.00,VWS V14.01,2013-02-06 08:36:00,
2013-02-06 02:41:00,60.1,57.2,29.91,ESE,105,0.0,3.0,90,0.00,,,0.00,VWS V14.01,2013-02-06 08:41:00,
2013-02-06 02:46:00,60.1,57.2,29.91,ESE,109,0.0,5.0,90,0.00,,,0.00,VWS V14.01,2013-02-06 08:46:00,
2013-02-06 02:51:00,60.2,57.3,29.91,ESE,122,0.0,1.0,90,0.00,,,0.00,VWS V14.01,2013-02-06 08:51:00,
2013-02-06 02:56:00,60.2,57.3,29.91,ESE,108,0.0,5.0,90,0.00,,,0.00,VWS V14.01,2013-02-06 08:56:00,
2013-02-06 03:01:00,60.4,57.5,29.91,ESE,107,0.0,0.0,90,0.00,,,0.00,VWS V14.01,2013-02-06 09:01:00,
2013-02-06 03:06:00,60.4,57.5,29.91,ESE,103,0.0,3.0,90,0.00,,,0.00,VWS V14.01,2013-02-06 09:06:00,
2013-02-06 03:11:00,60.4,57.5,29.91,ESE,102,0.0,2.0,90,0.00,,OVC009,0.00,VWS V14.01,2013-02-06 09:11:00,
2013-02-06 03:16:00,60.4,57.2,29.91,ESE,109,3.0,6.0,89,0.00,,OVC009,0.00,VWS V14.01,2013-02-06 09:16:00,
2013-02-06 03:21:00,60.5,57.6,29.91,ESE,117,1.0,5.0,90,0.00,,OVC009,0.00,VWS V14.01,2013-02-06 09:21:00,
2013-02-06 03:26:00,60.5,57.6,29.91,ESE,116,0.0,5.0,90,0.00,,OVC009,0.00,VWS V14.01,2013-02-06 09:26:00,
2013-02-06 03:31:00,60.7,57.8,29.90,East,96,4.0,5.0,90,0.00,,OVC009,0.00,VWS V14.01,2013-02-06 09:31:00,
2013-02-06 03:36:00,60.7,57.8,29.90,East,94,3.0,5.0,90,0.00,,OVC009,0.00,VWS V14.01,2013-02-06 09:36:00,
2013-02-06 03:41:00,60.7,57.4,29.90,East,82,7.0,7.0,89,0.00,,OVC011,0.00,VWS V14.01,2013-02-06 09:41:00,
2013-02-06 03:46:00,60.7,57.4,29.89,ESE,106,0.0,7.0,89,0.00,,OVC011,0.00,VWS V14.01,2013-02-06 09:46:00,
2013-02-06 03:51:00,60.7,57.8,29.89,East,97,3.0,9.0,90,0.00,,OVC011,0.00,VWS V14.01,2013-02-06 09:51:00,
2013-02-06 03:56:00,60.9,57.6,29.89,ESE,111,0.0,9.0,89,0.00,,OVC011,0.00,VWS V14.01,2013-02-06 09:56:00,
2013-02-06 04:01:00,60.7,57.4,29.89,East,94,0.0,3.0,89,0.00,,OVC011,0.00,VWS V14.01,2013-02-06 10:01:00,
2013-02-06 04:06:00,60.9,58.0,29.89,ESE,109,0.0,6.0,90,0.00,,OVC011,0.00,VWS V14.01,2013-02-06 10:06:00,
2013-02-06 04:11:00,60.9,58.0,29.89,ESE,103,0.0,5.0,90,0.00,,OVC013,0.00,VWS V14.01,2013-02-06 10:11:00,
2013-02-06 04:16:00,60.7,57.8,29.90,ESE,111,0.0,5.0,90,0.00,,OVC013,0.00,VWS V14.01,2013-02-06 10:16:00,
2013-02-06 04:21:00,60.7,57.8,29.90,ESE,111,0.0,2.0,90,0.00,,OVC013,0.00,VWS V14.01,2013-02-06 10:21:00,
2013-02-06 04:26:00,60.7,57.8,29.90,ESE,108,0.0,4.0,90,0.00,,OVC013,0.00,VWS V14.01,2013-02-06 10:26:00,
2013-02-06 04:31:00,60.7,57.8,29.90,ESE,108,0.0,0.0,90,0.00,,OVC013,0.00,VWS V14.01,2013-02-06 10:31:00,
2013-02-06 04:36:00,60.7,57.8,29.90,ESE,107,0.0,0.0,90,0.00,,OVC013,0.00,VWS V14.01,2013-02-06 10:36:00,
2013-02-06 04:41:00,60.7,57.8,29.90,East,98,0.0,5.0,90,0.00,,OVC013,0.00,VWS V14.01,2013-02-06 10:41:00,
2013-02-06 04:46:00,60.7,57.8,29.91,East,101,0.0,5.0,90,0.00,,OVC013,0.00,VWS V14.01,2013-02-06 10:46:00,
2013-02-06 04:52:00,60.7,57.8,29.91,East,101,0.0,0.0,90,0.00,,OVC013,0.00,VWS V14.01,2013-02-06 10:52:00,
2013-02-06 04:57:00,60.9,58.0,29.91,ESE,105,0.0,3.0,90,0.00,,OVC013,0.00,VWS V14.01,2013-02-06 10:57:00,
2013-02-06 05:02:00,60.9,58.0,29.91,ESE,105,0.0,0.0,90,0.00,,OVC013,0.00,VWS V14.01,2013-02-06 11:02:00,
2013-02-06 05:07:00,60.9,58.0,29.91,ESE,105,0.0,0.0,90,0.00,,OVC013,0.00,VWS V14.01,2013-02-06 11:07:00,
2013-02-06 05:12:00,60.9,58.0,29.91,ESE,105,0.0,0.0,90,0.00,,OVC011,0.00,VWS V14.01,2013-02-06 11:12:00,
2013-02-06 05:17:00,60.9,58.0,29.90,East,101,0.0,2.0,90,0.00,,OVC011,0.00,VWS V14.01,2013-02-06 11:17:00,
2013-02-06 05:22:00,60.9,58.0,29.90,East,101,0.0,0.0,90,0.00,,OVC011,0.00,VWS V14.01,2013-02-06 11:22:00,
2013-02-06 05:27:00,60.9,58.0,29.90,East,101,0.0,0.0,90,0.00,,OVC011,0.00,VWS V14.01,2013-02-06 11:27:00,
2013-02-06 05:32:00,61.0,58.4,29.91,ESE,102,0.0,3.0,91,0.00,,OVC011,0.00,VWS V14.01,2013-02-06 11:32:00,
2013-02-06 05:37:00,61.0,58.4,29.91,ESE,105,0.0,3.0,91,0.00,,OVC011,0.00,VWS V14.01,2013-02-06 11:37:00,
2013-02-06 05:42:00,61.2,58.6,29.91,East,96,0.0,8.0,91,0.00,,OVC011,0.00,VWS V14.01,2013-02-06 11:42:00,
2013-02-06 05:47:00,61.2,58.6,29.90,East,94,0.0,8.0,91,0.00,,OVC011,0.00,VWS V14.01,2013-02-06 11:47:00,
2013-02-06 05:52:00,61.3,58.7,29.90,East,101,0.0,4.0,91,0.00,,OVC011,0.00,VWS V14.01,2013-02-06 11:52:00,
2013-02-06 05:57:00,61.3,58.7,29.90,East,99,0.0,4.0,91,0.00,,OVC011,0.00,VWS V14.01,2013-02-06 11:57:00,
2013-02-06 06:02:00,61.5,58.8,29.91,East,95,0.0,3.0,91,0.00,,OVC011,0.00,VWS V14.01,2013-02-06 12:02:00,
2013-02-06 06:07:00,61.5,58.8,29.91,East,99,3.0,7.0,91,0.00,,OVC011,0.00,VWS V14.01,2013-02-06 12:07:00,
2013-02-06 06:12:00,61.6,59.0,29.91,ESE,104,0.0,2.0,91,0.00,,,0.00,VWS V14.01,2013-02-06 12:12:00,
2013-02-06 06:17:00,61.6,59.0,29.91,East,91,0.0,4.0,91,0.00,,,0.00,VWS V14.01,2013-02-06 12:17:00,
2013-02-06 06:22:00,61.6,59.0,29.91,East,92,0.0,5.0,91,0.00,,,0.00,VWS V14.01,2013-02-06 12:22:00,
2013-02-06 06:27:00,61.6,59.0,29.91,ESE,117,0.0,6.0,91,0.00,,,0.00,VWS V14.01,2013-02-06 12:27:00,
2013-02-06 06:32:00,61.6,59.0,29.91,East,101,0.0,3.0,91,0.00,,,0.00,VWS V14.01,2013-02-06 12:32:00,
2013-02-06 06:37:00,61.6,59.0,29.91,ESE,103,0.0,3.0,91,0.00,,,0.00,VWS V14.01,2013-02-06 12:37:00,
2013-02-06 06:42:00,61.8,59.2,29.91,ESE,103,0.0,0.0,91,0.00,,,0.00,VWS V14.01,2013-02-06 12:42:00,
2013-02-06 06:47:00,61.8,59.2,29.91,East,96,3.0,4.0,91,0.00,,,0.00,VWS V14.01,2013-02-06 12:47:00,
2013-02-06 06:52:00,61.8,59.2,29.91,East,99,0.0,1.0,91,0.00,,,0.00,VWS V14.01,2013-02-06 12:52:00,
2013-02-06 06:57:00,61.8,59.2,29.91,East,92,0.0,6.0,91,0.00,,,0.00,VWS V14.01,2013-02-06 12:57:00,
2013-02-06 07:02:00,61.8,59.2,29.91,East,90,0.0,2.0,91,0.00,,,0.00,VWS V14.01,2013-02-06 13:02:00,
2013-02-06 07:07:00,61.8,59.2,29.91,East,89,0.0,4.0,91,0.00,,,0.00,VWS V14.01,2013-02-06 13:07:00,
2013-02-06 07:12:00,61.8,59.2,29.91,East,97,2.0,5.0,91,0.00,,,0.00,VWS V14.01,2013-02-06 13:12:00,
2013-02-06 07:17:00,61.8,59.2,29.92,East,89,5.0,6.0,91,0.00,,,0.00,VWS V14.01,2013-02-06 13:17:00,
2013-02-06 07:22:00,61.8,59.2,29.92,ESE,103,4.0,7.0,91,0.00,,,0.00,VWS V14.01,2013-02-06 13:22:00,
2013-02-06 07:27:00,61.8,59.2,29.92,East,101,4.0,8.0,91,0.00,,,0.00,VWS V14.01,2013-02-06 13:27:00,
2013-02-06 07:32:00,61.8,59.2,29.93,ESE,103,4.0,6.0,91,0.00,,,0.00,VWS V14.01,2013-02-06 13:32:00,
2013-02-06 07:37:00,61.8,59.2,29.93,East,98,4.0,6.0,91,0.00,,,0.00,VWS V14.01,2013-02-06 13:37:00,
2013-02-06 07:42:00,61.8,59.2,29.93,ESE,107,0.0,0.0,91,0.00,,,0.00,VWS V14.01,2013-02-06 13:42:00,
2013-02-06 07:47:00,61.6,59.0,29.93,ESE,111,0.0,5.0,91,0.00,,,0.00,VWS V14.01,2013-02-06 13:47:00,
2013-02-06 07:52:00,61.6,59.0,29.93,ESE,108,2.0,5.0,91,0.00,,,0.00,VWS V14.01,2013-02-06 13:52:00,
2013-02-06 07:57:00,61.6,59.0,29.93,East,94,7.0,9.0,91,0.00,,,0.00,VWS V14.01,2013-02-06 13:57:00,
2013-02-06 08:02:00,61.5,58.8,29.93,ESE,113,5.0,9.0,91,0.00,,,0.00,VWS V14.01,2013-02-06 14:02:00,
2013-02-06 08:07:00,61.5,58.8,29.93,ESE,113,5.0,9.0,91,0.00,,,0.00,VWS V14.01,2013-02-06 14:07:00,
2013-02-06 08:12:00,61.5,59.2,29.93,SE,132,2.0,5.0,92,0.00,,,0.00,VWS V14.01,2013-02-06 14:12:00,
2013-02-06 08:17:00,61.5,59.2,29.93,ESE,107,4.0,9.0,92,0.00,,,0.00,VWS V14.01,2013-02-06 14:17:00,
2013-02-06 08:22:00,61.5,59.2,29.93,ESE,110,4.0,7.0,92,0.00,,,0.00,VWS V14.01,2013-02-06 14:22:00,
2013-02-06 08:27:00,61.5,59.2,29.93,SE,129,4.0,9.0,92,0.00,,,0.00,VWS V14.01,2013-02-06 14:27:00,
2013-02-06 08:32:00,61.5,58.8,29.94,SE,127,0.0,3.0,91,0.00,,,0.00,VWS V14.01,2013-02-06 14:32:00,
2013-02-06 08:37:00,61.3,59.0,29.94,SE,134,0.0,6.0,92,0.00,,,0.00,VWS V14.01,2013-02-06 14:37:00,
2013-02-06 08:42:00,61.3,59.0,29.94,SE,127,2.0,5.0,92,0.00,,,0.00,VWS V14.01,2013-02-06 14:42:00,
2013-02-06 08:47:00,61.5,59.2,29.94,ESE,104,0.0,8.0,92,0.00,,,0.00,VWS V14.01,2013-02-06 14:47:00,
2013-02-06 08:52:00,61.6,59.3,29.94,ESE,108,0.0,5.0,92,0.00,,,0.00,VWS V14.01,2013-02-06 14:52:00,
2013-02-06 08:57:00,61.6,59.3,29.94,ESE,106,0.0,5.0,92,0.01,,,0.01,VWS V14.01,2013-02-06 14:57:00,
2013-02-06 09:02:00,61.6,59.3,29.95,South,187,0.0,0.0,92,0.02,,,0.02,VWS V14.01,2013-02-06 15:02:00,
2013-02-06 09:07:00,61.6,59.3,29.95,South,187,0.0,0.0,92,0.02,,,0.02,VWS V14.01,2013-02-06 15:07:00,
2013-02-06 09:12:00,61.6,59.3,29.95,SSE,161,0.0,0.0,92,0.02,,,0.02,VWS V14.01,2013-02-06 15:12:00,
2013-02-06 09:17:00,61.6,59.3,29.95,SE,126,1.0,5.0,92,0.02,,,0.02,VWS V14.01,2013-02-06 15:17:00,
2013-02-06 09:22:00,61.5,59.2,29.95,SSE,151,6.0,11.0,92,0.03,,,0.03,VWS V14.01,2013-02-06 15:22:00,
2013-02-06 09:27:00,61.3,59.0,29.95,SSW,192,5.0,16.0,92,0.03,,,0.03,VWS V14.01,2013-02-06 15:27:00,
2013-02-06 09:39:00,61.5,59.2,29.95,SE,132,0.0,0.0,92,0.00,,,0.04,VWS V14.01,2013-02-06 15:39:00,
2013-02-06 09:44:00,61.6,59.3,29.95,ESE,123,0.0,2.0,92,0.04,,,0.04,VWS V14.01,2013-02-06 15:44:00,
2013-02-06 09:49:00,61.6,59.6,29.95,ESE,112,0.0,3.0,93,0.04,,,0.04,VWS V14.01,2013-02-06 15:49:00,
2013-02-06 09:54:00,62.0,60.0,29.95,ESE,105,0.0,1.0,93,0.05,,,0.05,VWS V14.01,2013-02-06 15:54:00,
2013-02-06 09:59:00,62.1,60.1,29.94,ESE,104,0.0,3.0,93,0.05,,,0.05,VWS V14.01,2013-02-06 15:59:00,
2013-02-06 10:06:00,62.1,60.1,29.94,ESE,111,0.0,0.0,93,0.00,,,0.05,VWS V14.01,2013-02-06 16:06:00,
2013-02-06 10:11:00,62.1,60.1,29.94,ESE,121,3.0,3.0,93,0.04,,-RA,0.06,VWS V14.01,2013-02-06 16:11:00,
2013-02-06 10:16:00,61.6,59.6,29.94,SE,124,0.0,4.0,93,0.04,,-RA,0.06,VWS V14.01,2013-02-06 16:16:00,
2013-02-06 10:21:00,61.3,59.3,29.94,SE,125,0.0,0.0,93,0.04,,-RA,0.06,VWS V14.01,2013-02-06 16:21:00,
2013-02-06 10:26:00,61.5,59.5,29.94,SE,125,0.0,2.0,93,0.04,,-RA,0.06,VWS V14.01,2013-02-06 16:26:00,
2013-02-06 10:31:00,61.6,59.6,29.94,SE,125,0.0,0.0,93,0.03,,-RA,0.06,VWS V14.01,2013-02-06 16:31:00,
2013-02-06 10:36:00,61.8,59.8,29.94,ESE,113,0.0,1.0,93,0.03,,-RA,0.06,VWS V14.01,2013-02-06 16:36:00,
2013-02-06 10:41:00,62.4,60.7,29.94,ESE,114,0.0,0.0,94,0.02,,-RA,0.06,VWS V14.01,2013-02-06 16:41:00,
2013-02-06 10:46:00,62.4,60.7,29.94,SE,125,0.0,2.0,94,0.02,,-RA,0.06,VWS V14.01,2013-02-06 16:46:00,
2013-02-06 10:51:00,63.1,61.3,29.94,SE,140,0.0,3.0,94,0.02,,-RA,0.06,VWS V14.01,2013-02-06 16:51:00,
2013-02-06 10:56:00,62.6,60.8,29.94,SSE,150,0.0,4.0,94,0.02,,-RA,0.06,VWS V14.01,2013-02-06 16:56:00,
2013-02-06 11:01:00,62.9,61.2,29.94,SE,136,3.0,4.0,94,0.01,,-RA,0.06,VWS V14.01,2013-02-06 17:01:00,
2013-02-06 11:06:00,62.7,61.0,29.94,SE,130,0.0,6.0,94,0.01,,-RA,0.06,VWS V14.01,2013-02-06 17:06:00,
2013-02-06 11:11:00,63.1,61.3,29.94,ESE,111,3.0,4.0,94,0.00,,,0.06,VWS V14.01,2013-02-06 17:11:00,
2013-02-06 11:16:00,62.7,60.7,29.93,ESE,116,0.0,5.0,93,0.00,,,0.06,VWS V14.01,2013-02-06 17:16:00,
2013-02-06 11:21:00,63.1,61.0,29.93,ESE,108,0.0,0.0,93,0.00,,,0.06,VWS V14.01,2013-02-06 17:21:00,
2013-02-06 11:26:00,62.7,60.7,29.93,ESE,118,0.0,5.0,93,0.00,,,0.06,VWS V14.01,2013-02-06 17:26:00,
2013-02-06 11:31:00,62.9,60.8,29.93,ESE,123,3.0,4.0,93,0.00,,,0.06,VWS V14.01,2013-02-06 17:31:00,
2013-02-06 11:36:00,62.7,60.7,29.93,SE,140,0.0,4.0,93,0.00,,,0.06,VWS V14.01,2013-02-06 17:36:00,
2013-02-06 11:41:00,63.1,61.0,29.93,SE,132,0.0,1.0,93,0.00,,-RA,0.06,VWS V14.01,2013-02-06 17:41:00,
2013-02-06 11:46:00,63.2,61.2,29.93,ESE,105,0.0,2.0,93,0.00,,-RA,0.06,VWS V14.01,2013-02-06 17:46:00,
2013-02-06 11:51:00,63.1,61.0,29.93,ESE,121,0.0,0.0,93,0.00,,-RA,0.06,VWS V14.01,2013-02-06 17:51:00,
2013-02-06 11:56:00,63.1,61.0,29.93,SE,125,0.0,4.0,93,0.00,,-RA,0.06,VWS V14.01,2013-02-06 17:56:00,
2013-02-06 12:51:00,64.7,62.3,29.89,SE,135,0.0,2.0,92,0.00,,-RA,0.06,VWS V14.01,2013-02-06 18:51:00,
2013-02-06 12:56:00,64.7,61.7,29.89,SE,131,0.0,3.0,90,0.00,,-RA,0.06,VWS V14.01,2013-02-06 18:56:00,
2013-02-06 13:01:00,65.0,62.0,29.88,SE,131,3.0,4.0,90,0.00,,-RA,0.06,VWS V14.01,2013-02-06 19:01:00,
2013-02-06 13:06:00,64.7,61.4,29.88,SSE,158,0.0,4.0,89,0.00,,-RA,0.06,VWS V14.01,2013-02-06 19:06:00,
2013-02-06 13:11:00,64.5,61.2,29.88,SSE,153,4.0,4.0,89,0.00,,OVC095,0.06,VWS V14.01,2013-02-06 19:11:00,
2013-02-06 13:16:00,64.7,61.1,29.87,SSE,147,2.0,4.0,88,0.00,,OVC095,0.06,VWS V14.01,2013-02-06 19:16:00,
2013-02-06 13:21:00,64.8,61.2,29.87,SSE,148,0.0,1.0,88,0.00,,OVC095,0.06,VWS V14.01,2013-02-06 19:21:00,
2013-02-06 13:26:00,64.7,60.8,29.87,SE,135,0.0,4.0,87,0.00,,OVC095,0.06,VWS V14.01,2013-02-06 19:26:00,
2013-02-06 13:31:00,65.5,61.5,29.86,SSE,157,1.0,4.0,87,0.00,,OVC095,0.06,VWS V14.01,2013-02-06 19:31:00,
2013-02-06 13:36:00,66.3,61.3,29.86,SE,137,1.0,7.0,84,0.00,,OVC095,0.06,VWS V14.01,2013-02-06 19:36:00,
2013-02-06 13:41:00,66.0,60.7,29.86,SE,146,0.0,0.0,83,0.00,,OVC100,0.06,VWS V14.01,2013-02-06 19:41:00,
2013-02-06 13:46:00,65.2,59.9,29.86,SE,132,4.0,10.0,83,0.00,,OVC100,0.06,VWS V14.01,2013-02-06 19:46:00,
2013-02-06 13:55:00,65.0,59.7,29.86,SE,128,4.0,9.0,83,0.00,,OVC100,0.06,VWS V14.01,2013-02-06 19:55:00,
2013-02-06 14:00:00,64.3,59.4,29.85,SE,126,4.0,9.0,84,0.00,,OVC100,0.06,VWS V14.01,2013-02-06 20:00:00,
2013-02-06 14:05:00,64.5,59.9,29.85,SE,128,5.0,9.0,85,0.00,,OVC100,0.06,VWS V14.01,2013-02-06 20:05:00,
2013-02-06 14:10:00,64.5,60.2,29.85,ESE,111,3.0,9.0,86,0.00,,OVC100,0.06,VWS V14.01,2013-02-06 20:10:00,
2013-02-06 14:15:00,64.7,60.4,29.84,East,101,0.0,7.0,86,0.00,,OVC100,0.06,VWS V14.01,2013-02-06 20:15:00,
2013-02-06 14:20:00,64.8,60.5,29.84,ESE,122,1.0,9.0,86,0.00,,OVC100,0.06,VWS V14.01,2013-02-06 20:20:00,
2013-02-06 14:25:00,64.3,60.0,29.84,SE,126,0.0,10.0,86,0.00,,OVC100,0.06,VWS V14.01,2013-02-06 20:25:00,
2013-02-06 14:30:00,64.2,59.9,29.83,SSE,157,0.0,10.0,86,0.00,,OVC100,0.06,VWS V14.01,2013-02-06 20:30:00,
2013-02-06 14:35:00,63.9,59.6,29.83,ESE,115,0.0,6.0,86,0.00,,OVC100,0.06,VWS V14.01,2013-02-06 20:35:00,
2013-02-06 14:40:00,63.9,59.6,29.83,ESE,105,0.0,6.0,86,0.00,,OVC100,0.06,VWS V14.01,2013-02-06 20:40:00,
2013-02-06 14:45:00,64.0,60.4,29.83,ESE,108,0.0,6.0,88,0.00,,OVC050,0.06,VWS V14.01,2013-02-06 20:45:00,
2013-02-06 14:50:00,64.2,60.6,29.83,ESE,105,3.0,6.0,88,0.00,,OVC050,0.06,VWS V14.01,2013-02-06 20:50:00,
2013-02-06 14:55:00,64.5,60.5,29.83,SE,124,0.0,5.0,87,0.00,,OVC050,0.06,VWS V14.01,2013-02-06 20:55:00,
2013-02-06 15:00:00,64.5,60.2,29.83,SE,127,0.0,5.0,86,0.00,,OVC050,0.06,VWS V14.01,2013-02-06 21:00:00,
2013-02-06 15:05:00,65.3,61.3,29.83,SSE,150,5.0,5.0,87,0.00,,OVC050,0.06,VWS V14.01,2013-02-06 21:05:00,
2013-02-06 15:10:00,65.2,60.6,29.83,ESE,115,0.0,7.0,85,0.00,,OVC050,0.06,VWS V14.01,2013-02-06 21:10:00,
2013-02-06 15:15:00,65.0,60.7,29.82,SE,128,0.0,6.0,86,0.00,,OVC095,0.06,VWS V14.01,2013-02-06 21:15:00,
2013-02-06 15:20:00,64.8,60.5,29.82,East,92,0.0,6.0,86,0.00,,OVC095,0.06,VWS V14.01,2013-02-06 21:20:00,
2013-02-06 15:25:00,64.7,60.4,29.82,ESE,112,0.0,4.0,86,0.00,,OVC095,0.06,VWS V14.01,2013-02-06 21:25:00,
2013-02-06 15:30:00,64.7,60.8,29.82,ENE,77,0.0,7.0,87,0.00,,OVC095,0.06,VWS V14.01,2013-02-06 21:30:00,
2013-02-06 15:35:00,65.0,61.0,29.82,East,101,1.0,4.0,87,0.00,,OVC095,0.06,VWS V14.01,2013-02-06 21:35:00,
2013-02-06 15:40:00,65.0,60.7,29.82,East,101,6.0,9.0,86,0.00,,OVC095,0.06,VWS V14.01,2013-02-06 21:40:00,
2013-02-06 15:45:00,64.8,60.5,29.82,ESE,107,2.0,9.0,86,0.00,,OVC095,0.06,VWS V14.01,2013-02-06 21:45:00,
2013-02-06 15:50:00,64.7,60.8,29.82,East,94,3.0,9.0,87,0.00,,OVC095,0.06,VWS V14.01,2013-02-06 21:50:00,
2013-02-06 15:55:00,65.0,61.0,29.82,ESE,103,2.0,9.0,87,0.00,,OVC095,0.06,VWS V14.01,2013-02-06 21:55:00,
2013-02-06 16:00:00,65.0,60.7,29.82,ESE,110,2.0,9.0,86,0.00,,OVC095,0.06,VWS V14.01,2013-02-06 22:00:00,
2013-02-06 16:05:00,64.8,60.5,29.82,East,96,3.0,4.0,86,0.00,,OVC095,0.06,VWS V14.01,2013-02-06 22:05:00,
2013-02-06 16:10:00,64.7,60.8,29.82,East,96,2.0,6.0,87,0.00,,OVC070,0.06,VWS V14.01,2013-02-06 22:10:00,
2013-02-06 16:15:00,64.5,60.5,29.82,East,96,1.0,6.0,87,0.00,,OVC070,0.06,VWS V14.01,2013-02-06 22:15:00,
2013-02-06 16:20:00,64.7,60.4,29.82,ESE,105,1.0,7.0,86,0.00,,OVC070,0.06,VWS V14.01,2013-02-06 22:20:00,
2013-02-06 16:25:00,64.5,60.2,29.82,East,96,4.0,7.0,86,0.00,,OVC070,0.06,VWS V14.01,2013-02-06 22:25:00,
2013-02-06 16:30:00,64.7,60.8,29.82,ESE,109,6.0,6.0,87,0.00,,OVC070,0.06,VWS V14.01,2013-02-06 22:30:00,
2013-02-06 16:35:00,64.8,60.5,29.82,East,88,0.0,7.0,86,0.00,,OVC070,0.06,VWS V14.01,2013-02-06 22:35:00,
2013-02-06 16:40:00,64.8,60.5,29.82,East,97,2.0,2.0,86,0.00,,OVC070,0.06,VWS V14.01,2013-02-06 22:40:00,
2013-02-06 16:45:00,64.7,60.4,29.81,East,80,2.0,3.0,86,0.00,,OVC070,0.06,VWS V14.01,2013-02-06 22:45:00,
2013-02-06 16:50:00,64.7,60.4,29.81,ESE,116,2.0,5.0,86,0.00,,OVC070,0.06,VWS V14.01,2013-02-06 22:50:00,
2013-02-06 16:55:00,64.5,60.2,29.81,East,96,1.0,6.0,86,0.00,,OVC070,0.06,VWS V14.01,2013-02-06 22:55:00,
2013-02-06 17:00:00,64.5,60.2,29.81,East,81,4.0,6.0,86,0.00,,OVC070,0.06,VWS V14.01,2013-02-06 23:00:00,
2013-02-06 17:05:00,64.5,60.2,29.81,East,90,0.0,8.0,86,0.00,,OVC070,0.06,VWS V14.01,2013-02-06 23:05:00,
2013-02-06 17:10:00,64.3,60.0,29.81,East,96,0.0,2.0,86,0.00,,OVC036,0.06,VWS V14.01,2013-02-06 23:10:00,
2013-02-06 17:15:00,64.3,60.3,29.81,East,88,2.0,9.0,87,0.00,,OVC036,0.06,VWS V14.01,2013-02-06 23:15:00,
2013-02-06 17:20:00,64.2,60.3,29.81,East,98,0.0,4.0,87,0.00,,OVC036,0.06,VWS V14.01,2013-02-06 23:20:00,
2013-02-06 17:25:00,64.0,60.1,29.81,ENE,78,3.0,9.0,87,0.00,,OVC036,0.06,VWS V14.01,2013-02-06 23:25:00,
2013-02-06 17:30:00,63.9,60.0,29.81,East,90,3.0,6.0,87,0.00,,OVC036,0.06,VWS V14.01,2013-02-06 23:30:00,
2013-02-06 17:35:00,63.9,60.0,29.81,East,96,3.0,7.0,87,0.00,,OVC036,0.06,VWS V14.01,2013-02-06 23:35:00,
2013-02-06 17:40:00,63.7,59.8,29.81,East,90,1.0,5.0,87,0.00,,OVC036,0.06,VWS V14.01,2013-02-06 23:40:00,
2013-02-06 17:45:00,63.5,59.6,29.81,East,84,0.0,9.0,87,0.00,,OVC036,0.06,VWS V14.01,2013-02-06 23:45:00,
2013-02-06 17:50:00,63.4,59.5,29.81,ESE,105,1.0,1.0,87,0.00,,OVC036,0.06,VWS V14.01,2013-02-06 23:50:00,
2013-02-06 17:55:00,63.4,59.5,29.81,East,98,0.0,10.0,87,0.00,,OVC036,0.06,VWS V14.01,2013-02-06 23:55:00,
2013-02-06 18:00:00,63.4,59.5,29.81,East,98,0.0,3.0,87,0.00,,OVC036,0.06,VWS V14.01,2013-02-07 00:00:00,
2013-02-06 18:05:00,63.2,59.3,29.81,East,98,1.0,5.0,87,0.00,,OVC036,0.06,VWS V14.01,2013-02-07 00:05:00,
2013-02-06 18:10:00,63.2,59.3,29.81,ESE,104,2.0,5.0,87,0.00,,OVC039,0.06,VWS V14.01,2013-02-07 00:10:00,
2013-02-06 18:15:00,63.2,59.3,29.81,ESE,103,0.0,5.0,87,0.00,,OVC039,0.06,VWS V14.01,2013-02-07 00:15:00,
2013-02-06 18:20:00,63.2,59.6,29.81,East,101,1.0,4.0,88,0.00,,OVC039,0.06,VWS V14.01,2013-02-07 00:20:00,
2013-02-06 18:25:00,63.1,59.5,29.81,East,97,0.0,4.0,88,0.00,,OVC039,0.06,VWS V14.01,2013-02-07 00:25:00,
2013-02-06 18:30:00,63.1,59.2,29.82,ESE,107,0.0,3.0,87,0.00,,OVC039,0.06,VWS V14.01,2013-02-07 00:30:00,
2013-02-06 18:35:00,62.9,59.3,29.82,East,92,0.0,5.0,88,0.00,,OVC039,0.06,VWS V14.01,2013-02-07 00:35:00,
2013-02-06 18:40:00,62.9,59.3,29.82,East,96,1.0,4.0,88,0.00,,OVC045,0.06,VWS V14.01,2013-02-07 00:40:00,
2013-02-06 18:45:00,62.9,59.3,29.82,ESE,103,0.0,5.0,88,0.00,,OVC045,0.06,VWS V14.01,2013-02-07 00:45:00,
2013-02-06 18:50:00,62.9,59.3,29.82,ESE,103,0.0,0.0,88,0.00,,OVC045,0.06,VWS V14.01,2013-02-07 00:50:00,
2013-02-06 18:55:00,62.9,59.3,29.82,East,101,0.0,3.0,88,0.00,,OVC045,0.06,VWS V14.01,2013-02-07 00:55:00,
2013-02-06 19:01:00,62.9,59.3,29.82,East,93,0.0,1.0,88,0.00,,OVC045,0.06,VWS V14.01,2013-02-07 01:01:00,
2013-02-06 19:06:00,62.7,59.1,29.82,ENE,76,0.0,6.0,88,0.00,,OVC045,0.06,VWS V14.01,2013-02-07 01:06:00,
2013-02-06 19:11:00,62.7,59.1,29.82,East,82,0.0,5.0,88,0.00,,OVC047,0.06,VWS V14.01,2013-02-07 01:11:00,
2013-02-06 19:16:00,62.6,59.0,29.83,East,100,0.0,7.0,88,0.00,,OVC047,0.06,VWS V14.01,2013-02-07 01:16:00,
2013-02-06 19:21:00,62.6,59.0,29.83,East,96,4.0,4.0,88,0.00,,OVC047,0.06,VWS V14.01,2013-02-07 01:21:00,
2013-02-06 19:26:00,62.4,58.8,29.83,ESE,111,0.0,4.0,88,0.00,,OVC047,0.06,VWS V14.01,2013-02-07 01:26:00,
2013-02-06 19:31:00,62.3,58.7,29.83,ESE,107,0.0,0.0,88,0.00,,OVC047,0.06,VWS V14.01,2013-02-07 01:31:00,
2013-02-06 19:36:00,62.1,58.5,29.83,ESE,107,0.0,0.0,88,0.00,,OVC047,0.06,VWS V14.01,2013-02-07 01:36:00,
2013-02-06 19:41:00,62.0,58.4,29.83,ESE,107,0.0,0.0,88,0.00,,OVC047,0.06,VWS V14.01,2013-02-07 01:41:00,
2013-02-06 19:46:00,62.0,58.7,29.84,ESE,107,0.0,0.0,89,0.00,,OVC047,0.06,VWS V14.01,2013-02-07 01:46:00,
2013-02-06 19:51:00,61.8,58.5,29.84,ESE,107,0.0,0.0,89,0.00,,OVC047,0.06,VWS V14.01,2013-02-07 01:51:00,
2013-02-06 19:56:00,61.8,58.5,29.84,ESE,107,0.0,0.0,89,0.00,,OVC047,0.06,VWS V14.01,2013-02-07 01:56:00,
2013-02-06 20:01:00,61.6,58.3,29.85,ESE,106,0.0,0.0,89,0.00,,OVC047,0.06,VWS V14.01,2013-02-07 02:01:00,
2013-02-06 20:06:00,61.6,58.3,29.85,East,98,0.0,2.0,89,0.00,,OVC047,0.06,VWS V14.01,2013-02-07 02:06:00,
2013-02-06 20:11:00,61.6,58.3,29.85,East,98,0.0,0.0,89,0.00,,OVC029,0.06,VWS V14.01,2013-02-07 02:11:00,
2013-02-06 20:16:00,61.6,58.3,29.85,East,98,0.0,0.0,89,0.00,,OVC029,0.06,VWS V14.01,2013-02-07 02:16:00,
2013-02-06 20:21:00,61.6,58.3,29.85,East,98,0.0,0.0,89,0.00,,OVC029,0.06,VWS V14.01,2013-02-07 02:21:00,
2013-02-06 20:26:00,61.5,58.2,29.85,East,98,0.0,0.0,89,0.00,,OVC029,0.06,VWS V14.01,2013-02-07 02:26:00,
2013-02-06 20:31:00,61.5,58.5,29.85,ESE,115,0.0,0.0,90,0.00,,OVC029,0.06,VWS V14.01,2013-02-07 02:31:00,
2013-02-06 20:36:00,61.5,58.5,29.85,ESE,110,0.0,2.0,90,0.00,,OVC029,0.06,VWS V14.01,2013-02-07 02:36:00,
2013-02-06 20:41:00,61.5,58.5,29.85,ESE,106,0.0,2.0,90,0.00,,OVC029,0.06,VWS V14.01,2013-02-07 02:41:00,
2013-02-06 20:46:00,61.5,58.5,29.85,ESE,109,0.0,5.0,90,0.00,,OVC029,0.06,VWS V14.01,2013-02-07 02:46:00,
2013-02-06 20:51:00,61.5,58.5,29.85,ESE,104,0.0,1.0,90,0.00,,OVC029,0.06,VWS V14.01,2013-02-07 02:51:00,
2013-02-06 20:56:00,61.5,58.5,29.85,ESE,103,4.0,10.0,90,0.00,,OVC029,0.06,VWS V14.01,2013-02-07 02:56:00,
2013-02-06 21:01:00,61.5,58.5,29.86,ESE,110,0.0,0.0,90,0.00,,OVC029,0.06,VWS V14.01,2013-02-07 03:01:00,
2013-02-06 21:06:00,61.5,58.5,29.86,ESE,111,0.0,5.0,90,0.00,,OVC029,0.06,VWS V14.01,2013-02-07 03:06:00,
2013-02-06 21:11:00,61.5,58.2,29.86,East,87,3.0,5.0,89,0.00,,OVC019,0.06,VWS V14.01,2013-02-07 03:11:00,
2013-02-06 21:16:00,61.5,58.2,29.86,ESE,118,2.0,5.0,89,0.00,,OVC019,0.06,VWS V14.01,2013-02-07 03:16:00,
2013-02-06 21:21:00,61.3,58.0,29.86,ESE,119,2.0,2.0,89,0.00,,OVC019,0.06,VWS V14.01,2013-02-07 03:21:00,
2013-02-06 21:26:00,61.3,58.0,29.86,ESE,123,0.0,5.0,89,0.00,,OVC019,0.06,VWS V14.01,2013-02-07 03:26:00,
2013-02-06 21:31:00,61.3,58.0,29.87,SE,126,0.0,2.0,89,0.00,,OVC019,0.06,VWS V14.01,2013-02-07 03:31:00,
2013-02-06 21:36:00,61.2,57.9,29.87,ESE,105,0.0,4.0,89,0.00,,OVC019,0.06,VWS V14.01,2013-02-07 03:36:00,
2013-02-06 21:41:00,61.0,57.7,29.87,ESE,105,2.0,4.0,89,0.00,,OVC019,0.06,VWS V14.01,2013-02-07 03:41:00,
2013-02-06 21:46:00,61.0,57.7,29.87,ESE,113,1.0,7.0,89,0.00,,OVC019,0.06,VWS V14.01,2013-02-07 03:46:00,
2013-02-06 21:51:00,60.9,57.3,29.87,ESE,111,0.0,0.0,88,0.00,,OVC019,0.06,VWS V14.01,2013-02-07 03:51:00,
2013-02-06 21:56:00,60.7,57.4,29.87,ESE,108,0.0,2.0,89,0.00,,OVC019,0.06,VWS V14.01,2013-02-07 03:56:00,
2013-02-06 22:01:00,60.7,57.4,29.86,ESE,120,0.0,1.0,89,0.00,,OVC019,0.06,VWS V14.01,2013-02-07 04:01:00,
2013-02-06 22:06:00,60.5,57.2,29.86,ESE,117,0.0,2.0,89,0.00,,OVC019,0.06,VWS V14.01,2013-02-07 04:06:00,
2013-02-06 22:11:00,60.5,57.2,29.86,ESE,115,0.0,0.0,89,0.00,,BKN048,0.06,VWS V14.01,2013-02-07 04:11:00,
2013-02-06 22:16:00,60.4,57.2,29.86,ESE,115,0.0,0.0,89,0.00,,BKN048,0.06,VWS V14.01,2013-02-07 04:16:00,
2013-02-06 22:21:00,60.4,57.2,29.86,ESE,103,0.0,0.0,89,0.00,,BKN048,0.06,VWS V14.01,2013-02-07 04:21:00,
2013-02-06 22:26:00,60.4,57.5,29.86,ESE,103,0.0,0.0,90,0.00,,BKN048,0.06,VWS V14.01,2013-02-07 04:26:00,
2013-02-06 22:31:00,60.2,57.3,29.86,East,99,0.0,1.0,90,0.00,,BKN048,0.06,VWS V14.01,2013-02-07 04:31:00,
2013-02-06 22:36:00,60.1,57.2,29.86,ESE,121,0.0,4.0,90,0.00,,BKN048,0.06,VWS V14.01,2013-02-07 04:36:00,
2013-02-06 22:41:00,59.9,57.0,29.86,ESE,109,0.0,4.0,90,0.00,,BKN048,0.06,VWS V14.01,2013-02-07 04:41:00,
2013-02-06 22:46:00,59.8,56.9,29.86,ESE,109,0.0,4.0,90,0.00,,BKN048,0.06,VWS V14.01,2013-02-07 04:46:00,
2013-02-06 22:51:00,59.6,56.7,29.86,ESE,108,0.0,0.0,90,0.00,,BKN048,0.06,VWS V14.01,2013-02-07 04:51:00,
2013-02-06 22:56:00,59.5,56.6,29.86,ESE,107,0.0,1.0,90,0.00,,BKN048,0.06,VWS V14.01,2013-02-07 04:56:00,
2013-02-06 23:00:00,59.3,56.4,29.87,ESE,107,0.0,1.0,90,0.00,,BKN048,0.06,VWS V14.01,2013-02-07 05:00:00,
2013-02-06 23:02:00,59.3,56.4,29.87,ESE,107,0.0,0.0,90,0.00,,BKN048,0.06,VWS V14.01,2013-02-07 05:02:00,
2013-02-06 23:07:00,59.3,56.4,29.87,ESE,107,0.0,0.0,90,0.00,,BKN048,0.06,VWS V14.01,2013-02-07 05:07:00,
2013-02-06 23:12:00,59.2,56.3,29.87,ESE,108,0.0,0.0,90,0.00,,CLR,0.06,VWS V14.01,2013-02-07 05:12:00,
2013-02-06 23:17:00,59.0,56.1,29.86,ESE,105,0.0,0.0,90,0.00,,CLR,0.06,VWS V14.01,2013-02-07 05:17:00,
2013-02-06 23:22:00,58.9,56.0,29.86,ESE,104,0.0,0.0,90,0.00,,CLR,0.06,VWS V14.01,2013-02-07 05:22:00,
2013-02-06 23:27:00,58.7,55.8,29.86,ESE,104,0.0,0.0,90,0.00,,CLR,0.06,VWS V14.01,2013-02-07 05:27:00,
2013-02-06 23:32:00,58.7,55.8,29.85,ESE,104,0.0,0.0,90,0.00,,CLR,0.06,VWS V14.01,2013-02-07 05:32:00,
2013-02-06 23:37:00,58.6,55.7,29.85,ESE,104,0.0,2.0,90,0.00,,CLR,0.06,VWS V14.01,2013-02-07 05:37:00,
2013-02-06 23:42:00,58.4,55.5,29.85,ESE,104,0.0,0.0,90,0.00,,CLR,0.06,VWS V14.01,2013-02-07 05:42:00,
2013-02-06 23:47:00,58.4,55.5,29.85,ESE,104,0.0,0.0,90,0.00,,CLR,0.06,VWS V14.01,2013-02-07 05:47:00,
2013-02-06 23:52:00,58.3,55.4,29.85,ESE,104,0.0,0.0,90,0.00,,CLR,0.06,VWS V14.01,2013-02-07 05:52:00,
2013-02-06 23:57:00,58.3,55.4,29.85,ESE,104,0.0,0.0,90,0.00,,CLR,0.06,VWS V14.01,2013-02-07 05:57:00,